Date,TemperatureHighF,TemperatureAvgF,TemperatureLowF,DewpointHighF,DewpointAvgF,DewpointLowF,HumidityHigh,HumidityAvg,HumidityLow,PressureMaxIn,PressureMinIn,WindSpeedMaxMPH,WindSpeedAvgMPH,GustSpeedMaxMPH,PrecipitationSumIn
2013-1-1,62,39,31,42,32,28,91,78,43,30.34,30.19,6,1,6,0.00
2013-1-2,34,33,31,30,29,28,89,87,85,30.20,30.13,2,0,2,0.00
2013-1-4,51,45,43,41,39,38,85,80,70,29.83,29.78,4,0,4,0.00
2013-1-5,45,44,42,39,37,34,85,76,68,29.82,29.73,8,1,8,0.01
2013-1-6,46,45,42,42,41,35,89,86,73,29.81,29.60,8,2,8,0.10
2013-1-7,51,47,42,48,44,39,93,89,81,29.76,29.43,13,5,13,0.02
2013-1-8,54,47,43,49,44,41,96,90,82,29.77,29.36,14,3,14,0.43
2013-1-9,50,49,46,48,47,45,94,94,93,29.36,29.35,0,0,0,0.21
2013-1-10,38,35,33,36,33,31,93,91,89,29.73,29.70,3,0,3,0.00
2013-1-11,54,36,30,46,31,28,96,83,56,29.95,29.72,6,1,7,0.02
2013-1-12,59,35,29,42,28,25,90,78,47,30.06,29.93,8,0,8,0.00
2013-1-13,58,35,28,39,27,24,87,74,38,30.12,30.04,4,0,4,0.00
2013-1-14,39,34,33,32,29,27,83,79,71,30.18,30.08,3,0,3,0.00
2013-1-15,67,46,35,47,35,30,87,68,38,30.32,30.18,4,0,4,0.00
2013-1-16,46,38,33,39,33,29,89,82,74,30.29,30.13,4,0,4,0.01
2013-1-17,39,36,33,36,33,29,92,89,86,30.14,29.91,3,0,3,0.00
2013-1-18,40,37,34,38,35,32,93,91,90,29.96,29.88,5,1,5,0.02
2013-1-19,38,36,35,35,34,32,92,91,89,30.00,29.95,4,1,4,0.00
2013-1-20,41,36,34,38,34,32,94,92,89,30.01,29.88,4,1,4,0.00
2013-1-21,38,36,33,36,34,31,94,93,90,29.89,29.76,4,1,4,0.01
2013-1-22,42,37,33,38,34,31,94,90,83,29.76,29.52,2,0,2,0.00
2013-1-23,44,42,38,41,38,35,93,87,80,29.76,29.46,7,1,7,0.23
2013-1-24,56,44,38,47,39,36,91,83,65,29.83,29.67,6,1,6,0.18
2013-1-25,65,47,41,55,43,38,94,86,65,29.68,29.55,4,1,4,0.12
2013-1-26,51,44,41,43,39,38,92,85,70,29.65,29.49,7,2,9,0.17
2013-1-27,43,42,41,40,38,38,91,87,85,29.68,29.61,8,2,8,0.05
2013-1-28,44,42,40,41,40,38,93,92,87,29.71,29.62,7,1,7,0.28
2013-1-29,48,44,42,46,43,40,95,94,91,29.95,29.70,7,2,7,0.21
2013-1-30,49,48,45,48,47,43,96,96,94,30.00,29.94,4,1,4,0.12
2013-1-31,52,49,47,48,46,45,96,90,83,30.01,29.91,9,2,9,0.11
2013-2-1,64,49,43,54,45,40,96,86,61,30.04,29.94,7,1,7,0.00
2013-2-2,45,43,40,42,40,38,93,91,88,30.00,29.87,6,2,6,0.00
2013-2-3,50,44,39,46,42,37,93,91,83,29.92,29.82,4,1,5,0.08
2013-2-4,56,48,44,48,43,42,92,84,67,29.83,29.50,5,1,5,0.00
2013-2-5,62,48,45,50,43,40,92,83,57,29.56,29.45,13,3,13,0.18
2013-2-6,56,47,44,44,41,40,89,81,60,29.67,29.41,9,3,9,0.07
2013-2-7,68,48,40,46,38,34,88,70,39,29.80,29.41,11,2,11,0.07
2013-2-8,60,44,39,46,38,35,86,78,58,29.93,29.80,5,0,5,0.00
2013-2-9,50,45,41,43,40,37,88,83,73,29.95,29.88,4,1,4,0.00
2013-2-10,64,46,39,49,39,36,90,79,52,30.00,29.93,5,1,5,0.00
2013-2-11,50,45,41,44,40,38,88,82,70,29.98,29.94,5,1,5,0.01
2013-2-12,52,48,45,47,44,42,94,88,80,30.02,29.90,11,2,11,0.02
2013-2-13,50,47,46,45,43,40,90,84,75,30.12,29.91,8,1,10,0.01
2013-2-14,59,48,44,51,44,41,91,85,65,30.17,30.11,6,1,6,0.04
2013-2-15,70,48,43,53,43,38,93,82,52,30.16,29.79,5,1,5,0.01
2013-2-16,67,48,41,51,41,37,91,79,50,29.82,29.73,11,2,11,0.01
2013-2-17,58,45,42,47,37,36,79,74,57,29.86,29.77,6,2,6,0.01
2013-2-18,51,45,41,42,38,36,86,77,64,29.72,29.39,6,1,6,0.01
2013-2-19,73,49,39,47,37,33,86,66,34,29.63,29.35,8,2,8,0.00
2013-2-20,48,43,38,40,36,32,82,77,70,29.66,29.60,8,2,8,0.04
2013-2-21,45,44,42,40,39,37,85,83,79,29.68,29.63,8,4,8,0.00
2013-2-22,46,44,40,44,40,35,93,87,82,29.67,29.31,15,4,15,0.30
2013-2-23,53,45,40,41,38,35,86,77,63,29.99,29.51,4,1,4,0.02
2013-2-24,51,47,42,39,37,36,81,68,62,29.99,29.59,10,4,10,0.02
2013-2-25,55,46,40,41,36,31,88,68,46,29.91,29.50,13,4,13,0.13
2013-2-26,58,46,40,45,35,33,82,66,52,29.97,29.81,10,3,10,0.01
2013-2-27,61,48,41,50,41,36,89,79,60,29.93,29.82,5,1,5,0.32
2013-2-28,53,49,44,50,46,42,94,92,89,29.94,29.81,9,2,9,0.26
2013-3-1,63,55,52,54,51,49,94,86,69,29.98,29.90,11,4,11,0.11
2013-3-2,62,51,42,51,45,38,86,81,64,29.90,29.68,11,2,11,0.28
2013-3-3,74,54,37,48,40,34,89,66,38,29.90,29.82,6,1,6,0.01
2013-3-4,69,51,36,43,33,29,81,51,37,29.89,29.54,8,1,8,0.00
2013-3-5,52,46,42,40,35,29,81,67,57,29.54,29.34,6,1,6,0.00
2013-3-6,48,44,42,43,40,38,91,85,81,29.51,29.19,9,2,9,0.54
2013-3-7,66,48,42,52,42,39,93,80,56,29.70,29.51,7,1,7,0.23
2013-3-8,71,51,39,50,40,36,89,71,44,29.86,29.69,5,2,5,0.00
2013-3-9,59,44,37,38,36,33,86,73,47,30.10,29.86,5,0,5,0.00
2013-3-10,51,47,42,42,40,34,83,76,72,30.11,30.04,4,1,4,0.02
2013-3-11,56,50,44,46,44,40,88,81,68,30.05,29.78,5,1,5,0.04
2013-3-12,57,52,49,51,48,46,91,86,72,29.78,29.70,11,4,11,0.01
2013-3-13,52,52,51,49,48,48,91,90,89,29.76,29.73,5,3,5,0.00
2013-3-14,55,50,49,49,47,46,93,88,74,29.77,29.68,5,2,5,0.06
2013-3-15,63,54,49,54,49,46,94,84,67,29.83,29.76,7,3,7,0.01
2013-3-16,53,47,42,47,41,36,87,80,68,29.76,29.50,12,3,12,0.04
2013-3-17,64,43,40,41,36,34,83,76,40,29.81,29.59,6,2,6,0.00
2013-3-18,63,47,41,42,35,33,83,65,44,29.85,29.73,6,3,6,0.01
2013-3-19,67,46,39,43,36,32,85,72,31,29.84,29.21,6,2,7,0.32
2013-3-20,65,48,42,49,42,34,95,82,53,29.62,29.00,15,4,15,0.66
2013-3-21,58,42,37,41,35,33,87,77,47,29.83,29.63,8,3,8,0.08
2013-3-22,56,39,36,44,34,30,87,81,55,29.98,29.83,5,2,5,0.01
2013-3-23,71,51,36,44,33,28,77,52,34,30.01,29.92,6,1,6,0.00
2013-3-24,59,50,36,43,36,29,79,59,45,29.92,29.74,6,1,6,0.00
2013-3-25,78,62,38,45,36,31,77,42,23,29.75,29.48,6,1,6,0.00
2013-3-26,68,58,49,44,40,34,67,52,37,29.62,29.51,6,1,6,0.00
2013-3-27,64,54,49,48,42,36,81,66,51,29.56,29.48,4,1,4,0.03
2013-3-28,58,51,47,45,44,42,86,78,58,29.71,29.53,3,0,3,0.03
2013-3-29,85,60,48,56,46,42,84,64,34,29.86,29.68,6,1,6,0.01
2013-3-30,83,61,47,51,45,42,82,60,31,29.83,29.62,7,2,7,0.02
2013-3-31,88,66,48,50,46,42,78,51,26,29.64,29.46,5,1,5,0.17
2013-4-1,66,59,51,50,47,41,82,66,54,29.77,29.55,6,2,6,0.00
2013-4-2,60,56,51,48,47,45,79,71,65,29.82,29.76,7,2,7,0.00
2013-4-3,80,61,49,54,46,43,82,60,38,29.81,29.57,3,1,3,0.00
2013-4-4,58,55,53,53,49,45,90,79,68,29.57,29.27,6,1,6,0.35
2013-4-5,61,54,50,53,50,47,93,84,67,29.50,29.35,8,3,8,0.46
2013-4-6,57,50,46,47,45,43,91,83,69,29.56,29.33,8,3,8,0.30
2013-4-7,49,46,43,45,42,40,91,88,85,29.51,29.12,6,2,6,0.88
2013-4-8,61,48,43,48,43,40,92,83,58,29.88,29.51,4,2,4,0.07
2013-4-9,58,52,45,46,43,41,87,72,59,29.97,29.80,6,2,6,0.00
2013-4-10,53,53,52,44,44,43,74,72,71,29.81,29.73,6,2,6,0.00
2013-4-11,57,52,48,47,43,39,84,72,61,29.92,29.82,3,1,3,0.13
2013-4-12,50,46,43,43,40,37,93,80,65,29.81,29.30,8,2,8,0.16
2013-4-13,53,45,40,42,39,34,87,78,67,29.60,29.37,8,3,8,0.29
2013-4-14,70,51,41,49,40,36,90,66,44,29.63,29.55,6,2,6,0.03
2013-4-15,60,51,43,44,40,37,82,69,47,29.79,29.57,4,1,4,0.06
2013-4-16,74,52,41,51,40,36,84,66,37,30.01,29.80,5,1,5,0.07
2013-4-17,77,56,42,46,39,35,77,56,29,30.08,30.01,6,2,6,0.01
2013-4-18,54,50,46,48,43,38,91,79,66,30.08,29.83,9,2,9,0.20
2013-4-19,57,52,50,54,49,47,93,91,86,29.83,29.68,9,3,9,0.68
2013-4-20,57,52,48,48,46,44,92,80,69,29.90,29.82,5,2,5,0.01
2013-4-21,58,50,46,48,43,40,82,77,64,29.97,29.85,5,2,5,0.08
2013-4-22,77,56,41,49,38,29,87,56,29,30.15,29.99,5,2,5,0.00
2013-4-23,70,56,42,44,37,31,75,51,29,30.04,29.87,5,2,5,0.00
2013-4-24,85,68,45,49,40,36,77,40,26,29.94,29.70,8,2,8,0.00
2013-4-25,88,66,48,47,41,38,69,44,23,29.76,29.66,4,1,4,0.00
2013-4-26,78,64,52,53,46,43,73,55,35,29.89,29.77,3,1,3,0.01
2013-4-27,61,56,53,48,44,38,80,64,49,29.84,29.78,7,2,7,0.02
2013-4-28,65,56,50,53,46,40,81,71,48,29.84,29.60,8,2,8,0.09
2013-4-29,72,53,46,48,42,38,86,69,39,29.78,29.54,5,2,5,0.20
2013-4-30,73,54,42,46,38,34,77,57,34,30.05,29.79,4,1,4,0.01
2013-5-1,80,60,43,44,37,34,71,46,24,30.20,30.06,5,1,5,0.00
2013-5-2,87,65,49,48,42,38,69,46,25,30.17,30.00,6,2,6,0.00
2013-5-3,85,68,51,51,46,40,71,48,31,30.01,29.86,6,2,6,0.00
2013-5-4,92,76,53,55,46,38,73,38,22,29.86,29.64,14,4,14,0.00
2013-5-5,96,75,56,52,47,39,69,40,19,29.62,29.42,8,2,8,0.00
2013-5-6,102,69,58,58,49,44,68,52,17,29.49,29.40,4,0,4,0.06
2013-5-7,72,62,54,54,51,49,84,68,53,29.65,29.49,5,2,5,0.00
2013-5-8,78,59,53,54,50,48,83,74,44,29.78,29.65,5,1,5,0.01
2013-5-9,81,63,52,56,51,47,87,66,39,29.85,29.76,3,0,3,0.00
2013-5-10,87,69,54,58,52,50,85,60,33,29.83,29.75,4,1,4,0.00
2013-5-11,88,70,57,56,50,43,69,51,31,29.81,29.63,4,2,4,0.02
2013-5-12,74,64,60,57,56,53,89,76,54,29.72,29.66,3,2,3,0.02
2013-5-13,68,57,51,58,51,42,89,81,63,29.82,29.57,7,2,7,0.16
2013-5-14,76,56,47,46,42,38,82,63,30,29.86,29.74,6,1,6,0.02
2013-5-15,71,58,50,50,44,41,70,61,42,29.75,29.67,4,1,4,0.01
2013-5-16,81,66,58,55,50,48,82,59,35,29.61,29.50,6,2,6,0.04
2013-5-17,67,57,54,52,49,46,88,76,51,29.64,29.58,6,3,6,0.03
2013-5-18,67,62,58,48,47,46,65,59,50,29.88,29.77,4,1,4,0.00
2013-5-19,69,60,54,51,49,46,79,69,52,30.04,29.91,4,1,4,0.00
2013-5-20,76,60,50,52,48,45,84,68,39,29.98,29.54,3,1,3,0.03
2013-5-21,63,55,48,50,46,43,90,72,57,29.53,29.41,6,2,6,0.14
2013-5-22,60,50,45,50,45,43,92,84,70,29.56,29.48,5,2,5,0.24
2013-5-23,61,52,46,49,45,42,90,80,59,29.64,29.55,6,1,6,0.11
2013-5-24,70,57,49,50,47,45,88,72,45,29.68,29.60,5,1,5,0.02
2013-5-25,69,55,51,49,47,45,86,77,42,29.68,29.60,6,2,6,0.00
2013-5-26,70,57,52,55,50,47,87,78,58,29.62,29.57,6,1,6,0.06
2013-5-27,62,58,52,56,53,49,90,86,79,29.60,29.35,5,1,5,0.21
2013-5-28,67,58,52,53,51,47,92,78,58,29.52,29.40,8,2,8,0.03
2013-5-29,67,56,50,53,49,47,89,78,54,29.60,29.32,9,2,9,0.15
2013-5-30,68,59,50,50,48,45,85,67,46,29.87,29.60,10,3,10,0.00
2013-5-31,74,58,52,50,46,42,84,67,34,29.97,29.87,5,1,5,0.00
2013-6-1,82,63,55,53,48,45,75,60,31,29.88,29.71,7,1,7,0.00
2013-6-2,81,68,56,53,51,48,81,55,34,29.73,29.68,6,2,6,0.01
2013-6-3,84,68,53,56,52,49,85,60,36,29.76,29.69,6,2,6,0.00
2013-6-4,81,64,55,58,53,49,82,68,43,29.76,29.72,5,2,5,0.02
2013-6-5,82,77,59,58,55,48,68,49,41,29.73,29.69,6,2,6,0.00
2013-6-6,84,73,63,57,50,45,54,46,32,29.69,29.65,5,1,5,0.01
2013-6-7,71,64,58,56,50,43,71,61,43,29.78,29.65,7,2,7,0.00
2013-6-8,77,62,55,54,49,47,73,63,42,29.82,29.73,6,2,6,0.00
2013-6-9,67,57,54,51,48,45,78,71,53,29.76,29.65,7,2,7,0.00
2013-6-10,80,65,53,51,47,45,75,54,33,29.67,29.52,6,2,6,0.00
2013-6-11,74,62,52,49,46,44,77,57,38,29.74,29.58,9,3,9,0.02
2013-6-12,55,55,54,47,47,46,76,74,71,29.75,29.73,6,3,6,0.00
2013-6-24,77,65,58,58,55,53,92,72,46,29.34,29.24,8,3,8,0.06
2013-6-25,79,62,58,58,56,54,91,79,45,29.50,29.31,11,1,11,0.52
2013-6-26,80,66,59,62,58,55,92,77,51,29.72,29.48,10,1,10,0.05
2013-6-27,71,65,62,63,59,56,89,82,72,29.83,29.68,2,0,2,0.12
2013-6-28,97,82,62,66,63,59,90,56,36,29.83,29.68,9,2,9,0.00
2013-6-29,93,72,67,64,60,59,78,68,38,29.75,29.63,4,1,4,0.00
2013-6-30,101,76,64,67,61,56,79,61,29,29.65,29.49,4,1,4,0.00
2013-7-1,98,80,68,67,62,58,73,56,36,29.67,29.55,7,2,7,0.00
2013-7-2,89,77,63,64,57,51,79,52,32,29.75,29.67,8,2,8,0.02
2013-7-3,87,69,62,58,51,46,61,53,34,29.79,29.68,7,3,7,0.03
2013-7-4,79,67,60,56,53,50,76,61,45,29.76,29.67,5,2,5,0.00
2013-7-5,78,70,59,57,55,52,79,59,48,29.68,29.59,9,2,9,0.02
2013-7-6,87,65,57,59,54,52,84,70,33,29.62,29.51,4,1,4,0.02
2013-7-7,86,69,60,60,57,53,83,66,42,29.59,29.53,4,1,4,0.02
2013-7-8,88,69,57,61,56,52,83,65,39,29.73,29.59,6,2,6,0.01
2013-7-9,92,71,62,60,57,52,80,63,32,29.75,29.64,6,2,6,0.01
2013-7-10,80,66,60,59,54,51,80,67,46,29.71,29.59,5,1,5,0.01
2013-7-11,79,65,56,53,49,47,72,57,38,29.72,29.63,3,2,3,0.03
2013-7-12,60,58,56,48,48,47,72,69,64,29.65,29.65,2,1,2,0.00
2013-7-13,85,74,64,55,51,48,69,46,30,29.83,29.75,5,2,5,0.09
2013-7-14,91,71,56,56,50,45,77,51,26,29.77,29.63,5,2,5,0.04
2013-7-15,88,72,60,58,52,48,71,51,29,29.68,29.54,8,3,8,0.03
2013-7-16,90,76,64,57,53,47,66,47,32,29.54,29.44,7,2,7,0.01
2013-7-17,76,67,61,58,56,53,83,68,53,29.82,29.53,6,2,6,0.15
2013-7-18,88,68,59,61,56,53,79,67,40,29.86,29.76,3,1,3,0.02
2013-7-19,82,71,60,62,58,54,83,66,48,29.80,29.68,5,1,5,0.02
2013-7-20,88,70,59,64,57,53,87,67,44,29.73,29.59,4,1,4,0.01
2013-7-21,69,61,58,58,54,53,87,80,70,29.62,29.60,3,1,3,0.02
2013-9-3,76,68,64,61,59,58,81,72,60,29.65,29.63,0,0,0,0.37
2013-9-4,79,68,61,64,61,57,90,78,60,29.68,29.64,4,1,4,0.01
2013-9-5,81,66,60,68,60,58,93,82,55,29.68,29.56,4,1,4,0.28
2013-9-6,79,66,61,65,61,60,95,86,60,29.74,29.58,3,1,3,1.12
2013-9-7,92,70,63,67,61,57,90,76,43,29.74,29.65,3,1,3,0.00
2013-9-8,98,75,60,71,61,56,90,67,34,29.74,29.66,3,1,3,0.00
2013-9-9,96,73,61,69,60,56,89,68,35,29.70,29.62,3,1,3,0.00
2013-9-10,65,65,65,58,58,58,79,79,79,29.62,29.62,1,1,1,0.00
2013-9-14,65,65,65,60,60,60,84,84,84,29.48,29.48,0,0,0,0.00
2013-9-15,67,65,63,62,61,60,92,88,84,29.44,29.38,3,2,3,0.14
2013-9-16,71,64,60,61,58,55,91,82,66,29.56,29.48,6,2,6,0.00
2013-9-17,65,61,59,55,53,52,80,75,65,29.55,29.50,3,1,3,0.00
2013-9-18,77,65,57,56,53,49,86,66,47,29.71,29.56,3,1,3,0.00
2013-9-19,90,69,50,57,52,46,87,59,30,29.68,29.40,3,1,3,0.01
2013-9-20,83,66,56,57,54,50,86,68,38,29.40,29.24,4,2,4,0.08
2013-9-21,80,64,56,57,54,52,89,74,44,29.36,29.28,4,1,4,0.05
2013-9-22,59,58,57,54,53,53,86,84,83,29.29,29.26,4,2,4,0.02
2013-9-25,66,58,51,51,48,46,88,71,54,29.65,29.59,2,1,2,0.00
2013-9-26,51,48,46,48,45,44,92,91,89,29.70,29.65,1,0,1,0.01
2013-9-29,54,54,54,49,49,48,84,83,81,29.15,29.07,4,4,4,0.74
2013-9-30,54,53,52,48,48,47,83,82,81,29.08,29.07,4,3,4,0.00
2013-10-1,59,59,59,47,47,47,65,65,65,29.67,29.67,5,5,5,0.00
2013-10-2,52,51,51,48,48,48,90,87,84,29.80,29.73,2,1,2,0.00
2013-10-3,51,50,50,48,48,48,93,92,90,29.87,29.80,0,0,0,0.00
2013-10-10,53,49,47,46,44,43,86,84,79,29.59,29.55,2,1,2,2.59
2013-10-11,59,58,56,52,52,51,86,81,77,29.75,29.72,1,0,1,0.41
2013-10-12,56,52,50,51,49,48,92,89,82,29.73,29.68,2,0,2,0.05
2013-10-13,48,48,46,45,44,42,88,86,83,29.97,29.95,0,0,0,0.00
2013-10-14,59,48,43,48,44,40,93,86,62,30.05,29.97,2,0,2,0.00
2013-10-15,72,52,45,58,47,41,95,84,55,30.00,29.79,4,0,4,0.00
2013-10-16,56,51,46,50,47,44,93,87,80,29.82,29.76,6,1,6,0.00
2013-10-17,68,51,46,55,47,43,90,87,62,29.89,29.81,5,1,5,0.00
2013-10-18,68,52,46,56,47,43,95,85,63,29.86,29.76,4,0,4,0.00
2013-10-19,52,49,47,49,47,45,94,91,88,29.81,29.75,3,0,3,0.00
2013-10-20,52,49,47,48,47,46,94,91,88,29.82,29.76,4,1,5,0.00
2013-10-21,53,50,47,50,48,46,94,92,88,29.78,29.71,4,1,4,0.00
2013-10-22,64,51,48,56,48,45,96,91,73,29.73,29.65,4,1,4,0.00
2013-10-23,63,48,46,56,46,45,96,94,79,29.67,29.61,4,0,4,0.00
2013-10-24,50,48,47,48,46,45,95,94,92,29.74,29.64,2,0,2,0.00
2013-10-25,54,50,46,51,48,44,95,92,88,29.93,29.74,3,0,3,0.00
2013-10-26,54,50,48,49,47,46,95,89,79,29.95,29.82,4,1,4,0.00
2013-10-27,60,52,48,50,47,45,94,83,68,29.80,29.52,11,2,11,0.00
2013-10-28,62,51,43,48,42,35,94,73,40,29.56,29.51,14,2,14,0.00
2013-10-29,65,51,38,44,39,34,87,66,42,29.66,29.56,6,1,6,0.00
2013-10-30,58,50,40,47,43,36,87,75,64,29.74,29.64,5,2,5,0.00
2013-10-31,56,53,50,52,49,47,90,87,82,29.87,29.73,4,1,4,0.00
2013-11-1,64,56,53,52,50,48,92,82,65,29.89,29.47,4,0,4,0.00
2013-11-2,55,51,48,51,43,39,91,74,66,29.50,29.11,18,5,18,0.00
2013-11-3,46,44,43,42,40,39,89,87,82,29.66,29.51,4,1,4,0.00
2013-11-4,54,54,54,46,44,41,75,68,61,29.81,29.78,1,1,1,0.00
2013-11-5,51,47,46,47,44,43,91,90,85,29.77,29.63,2,1,2,0.00
2013-11-6,53,50,46,48,46,44,91,86,79,29.93,29.70,2,1,2,0.00
2013-11-7,52,50,49,48,47,46,94,90,82,29.57,29.32,12,4,12,0.00
2013-11-8,54,51,47,47,45,43,86,81,73,29.77,29.58,6,2,6,0.00
2013-11-9,52,49,41,46,45,38,92,86,77,29.73,29.68,4,1,4,0.00
2013-11-10,51,48,46,47,45,44,94,91,84,29.76,29.69,6,2,6,0.00
2013-11-11,62,49,42,53,45,40,94,85,67,29.77,29.61,4,0,4,0.00
2013-11-12,66,53,47,58,50,44,92,87,71,29.98,29.63,6,2,6,0.00
2013-11-13,59,54,50,53,49,45,92,85,73,30.04,29.92,7,2,7,0.00
2013-11-14,53,48,44,48,45,42,93,90,82,29.92,29.67,2,0,2,0.00
2013-11-15,49,46,45,47,43,41,93,90,86,29.67,28.93,8,2,8,0.00
2013-11-16,50,46,40,43,40,38,90,80,69,29.37,28.96,6,2,6,0.00
2013-11-17,56,48,45,49,44,39,91,86,79,29.51,29.38,6,3,6,0.00
2013-11-18,52,50,48,50,48,45,95,94,91,29.51,29.16,8,2,8,0.00
2013-11-19,54,48,45,52,46,41,94,91,86,29.46,29.16,8,3,8,0.00
2013-11-20,49,41,36,33,29,26,80,63,45,30.10,29.88,8,3,8,0.00
2013-11-21,50,37,31,34,29,26,87,73,48,30.28,30.11,7,2,7,0.00
2013-11-22,51,39,32,36,30,27,85,72,45,30.26,30.07,4,2,4,0.00
2013-11-23,54,40,31,40,33,28,87,77,58,30.05,29.80,3,0,3,0.00
2013-11-24,60,41,33,46,36,30,90,83,61,29.86,29.77,4,0,4,0.00
2013-11-25,60,42,35,47,37,32,93,83,61,29.94,29.86,2,0,2,0.00
2013-11-26,62,44,36,48,39,33,94,82,60,29.87,29.71,2,0,2,0.00
2013-11-27,61,46,40,47,40,36,88,81,60,29.71,29.57,2,0,2,0.00
2013-11-28,55,41,37,49,39,34,94,90,78,29.79,29.63,3,0,3,0.00
2013-11-29,48,43,40,46,41,38,94,92,87,29.92,29.78,3,1,3,0.00
2013-11-30,51,49,45,48,46,43,93,87,83,29.94,29.70,7,2,7,0.00
2013-12-1,54,52,46,51,48,39,95,87,73,29.70,29.35,11,4,11,0.00
2013-12-2,52,41,37,39,35,33,89,78,57,29.65,29.42,4,1,4,0.00
2013-12-3,45,37,31,35,27,24,90,67,49,29.91,29.66,8,2,10,0.00
2013-12-4,46,31,26,34,25,23,88,80,54,29.97,29.89,5,0,5,0.00
2013-12-5,36,29,25,25,22,18,81,73,62,29.93,29.79,5,0,5,0.00
2013-12-6,39,30,26,20,15,11,69,53,37,29.80,29.75,10,2,10,0.00
2013-12-7,37,27,22,13,10,7,63,50,35,30.03,29.83,5,1,5,0.00
2013-12-8,39,27,21,22,16,11,72,62,45,30.18,30.02,4,1,4,0.00
2013-12-9,34,29,24,25,20,15,79,71,64,30.19,30.09,4,1,4,0.00
2013-12-10,41,36,33,34,31,25,85,79,72,30.10,30.02,2,0,2,0.00
2013-12-11,43,37,31,38,33,28,92,85,79,30.02,29.78,2,0,2,0.00
2013-12-12,42,38,34,40,36,31,95,92,79,29.77,29.66,2,1,2,0.00
2013-12-13,49,46,42,47,44,40,96,94,92,30.03,29.74,3,1,3,0.00
2013-12-14,49,46,44,45,44,42,94,91,85,30.04,29.94,5,2,5,0.00
2013-12-15,52,50,47,48,47,44,95,91,86,30.06,29.92,7,2,7,0.00
2013-12-16,53,46,41,47,43,39,94,91,82,30.10,29.88,3,0,3,0.00
2013-12-17,46,42,40,43,40,38,96,92,87,29.88,29.72,5,1,5,0.00
2013-12-18,45,43,38,43,39,33,94,88,72,29.76,29.64,6,1,6,0.00
2013-12-19,43,36,30,35,31,27,90,79,67,29.96,29.76,4,1,4,0.00
2013-12-20,44,37,33,43,34,28,95,90,78,29.81,29.32,4,1,4,0.00
2013-12-21,46,44,41,45,42,40,95,95,94,29.77,29.44,4,1,4,0.00
2013-12-22,50,48,46,49,47,44,97,96,95,29.90,29.76,5,2,5,0.00
2013-12-23,59,50,44,50,46,40,95,87,68,30.12,29.74,9,3,9,0.00
2013-12-24,49,42,36,43,38,34,93,88,80,30.23,30.12,2,0,2,0.00
2013-12-25,47,38,35,41,36,32,94,90,79,30.15,30.01,1,0,1,0.00
2013-12-26,49,39,35,44,36,33,95,92,84,30.01,29.81,2,0,2,0.00
2013-12-27,46,40,34,44,38,33,96,94,91,29.97,29.74,6,1,6,0.00
2013-12-28,49,43,39,47,41,37,95,93,88,30.13,29.98,1,0,1,0.00
2013-12-29,45,41,36,43,39,35,96,93,89,30.09,29.92,2,0,2,0.00
2013-12-30,45,42,40,43,41,38,96,94,91,29.93,29.73,2,0,2,0.00
2013-12-31,46,45,41,45,43,39,95,92,87,29.98,29.80,3,1,3,0.00
2014-1-1,47,43,40,46,42,39,97,94,91,30.01,29.86,4,0,4,0.00
2014-1-2,50,46,43,45,43,42,95,90,81,29.86,29.50,6,2,6,0.00